createdAt,value
2016-05-06T00:00:37.322Z,11.57
2016-05-06T00:01:37.371Z,11.5
2016-05-06T00:02:37.390Z,11.5
2016-05-06T00:03:37.284Z,11.43
2016-05-06T00:04:37.552Z,11.49
2016-05-06T00:05:37.522Z,11.43
2016-05-06T00:06:37.385Z,11.49
2016-05-06T00:07:37.605Z,11.35
2016-05-06T00:08:37.656Z,11.43
2016-05-06T00:09:37.690Z,11.36
2016-05-06T00:10:38.989Z,11.44
2016-05-06T00:11:37.757Z,11.38
2016-05-06T00:12:37.824Z,11.36
2016-05-06T00:13:37.826Z,11.36
2016-05-06T00:14:37.875Z,11.27
2016-05-06T00:15:37.596Z,11.27
2016-05-06T00:16:37.974Z,11.25
2016-05-06T00:17:37.992Z,11.16
2016-05-06T00:18:38.043Z,11.2
2016-05-06T00:19:37.935Z,11.17
2016-05-06T00:20:38.009Z,11.21
2016-05-06T00:21:38.138Z,11.16
2016-05-06T00:22:38.202Z,11.24
2016-05-06T00:23:38.236Z,11.21
2016-05-06T00:24:38.270Z,11.2
2016-05-06T00:25:38.163Z,11.17
2016-05-06T00:26:38.369Z,11.19
2016-05-06T00:27:38.388Z,11.2
2016-05-06T00:28:38.156Z,11.17
2016-05-06T00:29:38.331Z,11.16
2016-05-06T00:30:38.505Z,11.13
2016-05-06T00:31:38.414Z,11.09
2016-05-06T00:32:38.573Z,11.06
2016-05-06T00:33:38.623Z,11.07
2016-05-06T00:34:38.719Z,11.01
2016-05-06T00:35:38.707Z,10.94
2016-05-06T00:36:38.740Z,10.98
2016-05-06T00:37:38.789Z,11.02
2016-05-06T00:38:38.870Z,10.92
2016-05-06T00:39:38.873Z,10.83
2016-05-06T00:40:38.985Z,10.86
2016-05-06T00:41:38.800Z,10.81
2016-05-06T00:42:38.991Z,10.94
2016-05-06T00:43:39.025Z,10.83
2016-05-06T00:44:39.042Z,10.8
2016-05-06T00:45:39.139Z,11.01
2016-05-06T00:46:38.985Z,10.98
2016-05-06T00:47:39.175Z,10.96
2016-05-06T00:48:39.053Z,10.95
2016-05-06T00:49:39.291Z,10.92
2016-05-06T00:50:39.293Z,10.83
2016-05-06T00:51:39.327Z,10.88
2016-05-06T00:52:39.393Z,10.94
2016-05-06T00:53:39.411Z,10.84
2016-05-06T00:54:39.476Z,10.83
2016-05-06T00:55:39.729Z,10.86
2016-05-06T00:56:39.404Z,10.86
2016-05-06T00:57:39.577Z,10.84
2016-05-06T00:58:39.440Z,10.86
2016-05-06T00:59:39.676Z,10.78
2016-05-06T01:00:39.711Z,10.89
2016-05-06T01:01:39.729Z,10.8
2016-05-06T01:02:39.779Z,10.81
2016-05-06T01:03:39.812Z,10.78
2016-05-06T01:04:39.878Z,10.77
2016-05-06T01:05:39.896Z,10.91
2016-05-06T01:06:39.931Z,10.89
2016-05-06T01:07:39.979Z,10.84
2016-05-06T01:08:39.998Z,10.89
2016-05-06T01:09:40.064Z,10.77
2016-05-06T01:10:40.112Z,10.77
2016-05-06T01:11:40.162Z,10.73
2016-05-06T01:12:40.164Z,10.66
2016-05-06T01:13:40.184Z,10.73
2016-05-06T01:14:40.248Z,10.68
2016-05-06T01:15:40.283Z,10.71
2016-05-06T01:16:40.160Z,10.6
2016-05-06T01:17:40.366Z,10.65
2016-05-06T01:18:40.259Z,10.53
2016-05-06T01:19:40.450Z,10.59
2016-05-06T01:20:40.483Z,10.53
2016-05-06T01:21:40.516Z,10.46
2016-05-06T01:22:40.395Z,10.52
2016-05-06T01:23:40.585Z,10.51
2016-05-06T01:24:40.635Z,10.52
2016-05-06T01:25:40.777Z,10.46
2016-05-06T01:26:40.610Z,10.51
2016-05-06T01:27:40.596Z,10.46
2016-05-06T01:28:40.802Z,10.55
2016-05-06T01:29:40.835Z,10.47
2016-05-06T01:30:40.713Z,10.47
2016-05-06T01:31:40.919Z,10.42
2016-05-06T01:32:40.953Z,10.4
2016-05-06T01:33:41.018Z,10.39
2016-05-06T01:34:41.036Z,10.3
2016-05-06T01:35:41.055Z,10.32
2016-05-06T01:36:41.011Z,10.36
2016-05-06T01:37:41.153Z,10.26
2016-05-06T01:38:41.172Z,10.22
2016-05-06T01:39:41.254Z,10.21
2016-05-06T01:40:41.428Z,10.15
2016-05-06T01:41:41.289Z,10.18
2016-05-06T01:42:41.340Z,10.18
2016-05-06T01:43:41.436Z,10.07
2016-05-06T01:44:41.423Z,10.09
2016-05-06T01:45:41.456Z,10.15
2016-05-06T01:46:41.491Z,10.07
2016-05-06T01:47:41.556Z,10.1
2016-05-06T01:48:41.559Z,10.07
2016-05-06T01:49:41.608Z,10.09
2016-05-06T01:50:41.673Z,10.1
2016-05-06T01:51:41.536Z,10.07
2016-05-06T01:52:41.726Z,10.04
2016-05-06T01:53:41.775Z,10
2016-05-06T01:54:41.824Z,10.01
2016-05-06T01:55:41.703Z,9.97
2016-05-06T01:56:41.893Z,9.96
2016-05-06T01:57:41.927Z,9.89
2016-05-06T01:58:41.945Z,9.93
2016-05-06T01:59:41.994Z,9.86
2016-05-06T02:00:42.044Z,9.81
2016-05-06T02:01:42.093Z,9.88
2016-05-06T02:02:42.112Z,9.96
2016-05-06T02:03:42.129Z,9.86
2016-05-06T02:04:42.040Z,9.86
2016-05-06T02:05:42.229Z,9.86
2016-05-06T02:06:42.263Z,9.88
2016-05-06T02:07:42.140Z,9.83
2016-05-06T02:08:42.362Z,9.81
2016-05-06T02:09:42.225Z,9.81
2016-05-06T02:10:42.508Z,9.86
2016-05-06T02:11:42.448Z,9.82
2016-05-06T02:12:42.498Z,9.85
2016-05-06T02:13:42.517Z,9.85
2016-05-06T02:14:42.566Z,9.83
2016-05-06T02:15:42.647Z,9.82
2016-05-06T02:16:42.665Z,9.78
2016-05-06T02:17:42.684Z,9.86
2016-05-06T02:18:42.592Z,9.85
2016-05-06T02:19:42.611Z,9.83
2016-05-06T02:20:42.645Z,9.88
2016-05-06T02:21:42.835Z,9.88
2016-05-06T02:22:42.900Z,9.88
2016-05-06T02:23:42.922Z,9.96
2016-05-06T02:24:42.956Z,9.88
2016-05-06T02:25:43.459Z,9.83
2016-05-06T02:26:43.087Z,9.97
2016-05-06T02:27:43.089Z,10
2016-05-06T02:28:43.123Z,9.96
2016-05-06T02:29:43.156Z,9.96
2016-05-06T02:30:43.223Z,9.97
2016-05-06T02:31:43.241Z,9.97
2016-05-06T02:32:43.258Z,9.94
2016-05-06T02:33:43.308Z,9.96
2016-05-06T02:34:43.186Z,9.94
2016-05-06T02:35:43.408Z,10.03
2016-05-06T02:36:43.410Z,10.03
2016-05-06T02:37:43.320Z,10.1
2016-05-06T02:38:43.494Z,10.04
2016-05-06T02:39:43.388Z,10.03
2016-05-06T02:40:43.608Z,10.15
2016-05-06T02:41:43.642Z,10.04
2016-05-06T02:42:43.520Z,10.06
2016-05-06T02:43:43.711Z,9.99
2016-05-06T02:44:43.760Z,10.04
2016-05-06T02:45:43.621Z,10.01
2016-05-06T02:46:43.797Z,10.06
2016-05-06T02:47:43.846Z,10.07
2016-05-06T02:48:43.770Z,10.03
2016-05-06T02:49:43.929Z,9.97
2016-05-06T02:50:43.964Z,9.96
2016-05-06T02:51:44.013Z,9.97
2016-05-06T02:52:44.093Z,9.93
2016-05-06T02:53:44.082Z,9.96
2016-05-06T02:54:44.114Z,9.99
2016-05-06T02:55:45.165Z,9.88
2016-05-06T02:56:44.198Z,9.93
2016-05-06T02:57:44.248Z,9.89
2016-05-06T02:58:44.298Z,9.85
2016-05-06T02:59:44.332Z,9.83
2016-05-06T03:00:44.365Z,9.76
2016-05-06T03:01:44.242Z,9.85
2016-05-06T03:02:44.278Z,9.7
2016-05-06T03:03:44.483Z,9.83
2016-05-06T03:04:44.533Z,9.79
2016-05-06T03:05:44.238Z,9.7
2016-05-06T03:06:44.600Z,9.66
2016-05-06T03:07:44.619Z,9.63
2016-05-06T03:08:44.652Z,9.56
2016-05-06T03:09:44.733Z,9.58
2016-05-06T03:10:44.752Z,9.57
2016-05-06T03:11:44.786Z,9.52
2016-05-06T03:12:44.819Z,9.5
2016-05-06T03:13:44.729Z,9.52
2016-05-06T03:14:44.887Z,9.49
2016-05-06T03:15:44.938Z,9.53
2016-05-06T03:16:44.987Z,9.34
2016-05-06T03:17:45.068Z,9.27
2016-05-06T03:18:45.054Z,9.31
2016-05-06T03:19:45.088Z,9.35
2016-05-06T03:20:45.154Z,9.32
2016-05-06T03:21:45.203Z,9.34
2016-05-06T03:22:45.049Z,9.32
2016-05-06T03:23:45.240Z,9.16
2016-05-06T03:24:45.305Z,9.23
2016-05-06T03:25:45.323Z,9.18
2016-05-06T03:26:45.357Z,9.23
2016-05-06T03:27:45.235Z,9.18
2016-05-06T03:28:45.456Z,9.13
2016-05-06T03:29:45.459Z,9.09
2016-05-06T03:30:45.525Z,9.09
2016-05-06T03:31:45.542Z,9.09
2016-05-06T03:32:45.576Z,9.09
2016-05-06T03:33:45.626Z,9.01
2016-05-06T03:34:45.691Z,9.06
2016-05-06T03:35:45.725Z,9.06
2016-05-06T03:36:45.603Z,9.05
2016-05-06T03:37:45.778Z,9.09
2016-05-06T03:38:45.858Z,9.04
2016-05-06T03:39:45.861Z,9.09
2016-05-06T03:40:46.489Z,9.01
2016-05-06T03:41:45.984Z,9.02
2016-05-06T03:42:45.971Z,9.01
2016-05-06T03:43:45.993Z,9.04
2016-05-06T03:44:45.869Z,9.02
2016-05-06T03:45:45.903Z,9.05
2016-05-06T03:46:45.985Z,8.96
2016-05-06T03:47:46.144Z,9.04
2016-05-06T03:48:46.036Z,9.02
2016-05-06T03:49:46.211Z,9.02
2016-05-06T03:50:46.291Z,8.97
2016-05-06T03:51:46.310Z,8.93
2016-05-06T03:52:46.360Z,8.99
2016-05-06T03:53:46.237Z,8.97
2016-05-06T03:54:46.413Z,9.02
2016-05-06T03:55:46.712Z,8.94
2016-05-06T03:56:46.496Z,8.94
2016-05-06T03:57:46.389Z,8.97
2016-05-06T03:58:46.563Z,9.06
2016-05-06T03:59:46.645Z,8.97
2016-05-06T04:00:46.663Z,9.01
2016-05-06T04:01:46.540Z,8.97
2016-05-06T04:02:46.714Z,8.99
2016-05-06T04:03:46.624Z,9.02
2016-05-06T04:04:46.845Z,9.02
2016-05-06T04:05:46.816Z,9.16
2016-05-06T04:06:46.882Z,9.02
2016-05-06T04:07:46.792Z,9.02
2016-05-06T04:08:46.981Z,9.09
2016-05-06T04:09:46.983Z,9.09
2016-05-06T04:10:47.018Z,9.15
2016-05-06T04:11:47.097Z,9.15
2016-05-06T04:12:46.961Z,9.05
2016-05-06T04:13:47.135Z,9.06
2016-05-06T04:14:47.185Z,9.15
2016-05-06T04:15:47.234Z,9.13
2016-05-06T04:16:47.268Z,9.16
2016-05-06T04:17:47.146Z,9.09
2016-05-06T04:18:47.335Z,9.12
2016-05-06T04:19:47.386Z,9.25
2016-05-06T04:20:47.279Z,9.13
2016-05-06T04:21:47.438Z,9.18
2016-05-06T04:22:47.471Z,9.2
2016-05-06T04:23:47.552Z,9.2
2016-05-06T04:24:47.571Z,9.15
2016-05-06T04:25:47.745Z,9.15
2016-05-06T04:26:47.654Z,9.25
2016-05-06T04:27:47.688Z,9.2
2016-05-06T04:28:47.723Z,9.25
2016-05-06T04:29:47.756Z,9.27
2016-05-06T04:30:47.837Z,9.27
2016-05-06T04:31:47.809Z,9.25
2016-05-06T04:32:47.859Z,9.21
2016-05-06T04:33:47.923Z,9.23
2016-05-06T04:34:47.785Z,9.2
2016-05-06T04:35:47.976Z,9.31
2016-05-06T04:36:47.869Z,9.28
2016-05-06T04:37:47.934Z,9.32
2016-05-06T04:38:48.108Z,9.45
2016-05-06T04:39:47.986Z,9.48
2016-05-06T04:40:48.270Z,9.43
2016-05-06T04:41:48.070Z,9.45
2016-05-06T04:42:48.244Z,9.48
2016-05-06T04:43:48.294Z,9.49
2016-05-06T04:44:48.328Z,9.5
2016-05-06T04:45:48.393Z,9.6
2016-05-06T04:46:48.380Z,9.49
2016-05-06T04:47:48.289Z,9.56
2016-05-06T04:48:48.323Z,9.61
2016-05-06T04:49:48.560Z,9.5
2016-05-06T04:50:48.563Z,9.64
2016-05-06T04:51:48.580Z,9.61
2016-05-06T04:52:48.646Z,9.66
2016-05-06T04:53:48.555Z,9.71
2016-05-06T04:54:48.714Z,9.71
2016-05-06T04:55:48.795Z,9.81
2016-05-06T04:56:48.829Z,9.86
2016-05-06T04:57:48.816Z,9.83
2016-05-06T04:58:48.865Z,9.99
2016-05-06T04:59:48.931Z,9.94
2016-05-06T05:00:48.964Z,9.96
2016-05-06T05:01:48.968Z,10.01
2016-05-06T05:02:49.017Z,10.01
2016-05-06T05:03:49.066Z,10.09
2016-05-06T05:04:49.101Z,10.03
2016-05-06T05:05:48.962Z,10.19
2016-05-06T05:06:49.012Z,10.18
2016-05-06T05:07:49.217Z,10.17
2016-05-06T05:08:49.252Z,10.32
2016-05-06T05:09:49.286Z,10.17
2016-05-06T05:10:49.952Z,10.33
2016-05-06T05:11:49.470Z,10.37
2016-05-06T05:12:49.520Z,10.51
2016-05-06T05:13:49.586Z,10.55
2016-05-06T05:14:49.542Z,10.55
2016-05-06T05:15:49.764Z,10.62
2016-05-06T05:16:49.800Z,10.62
2016-05-06T05:17:49.867Z,10.6
2016-05-06T05:18:49.980Z,10.7
2016-05-06T05:19:49.999Z,10.7
2016-05-06T05:20:50.045Z,10.66
2016-05-06T05:21:50.085Z,10.84
2016-05-06T05:22:50.188Z,10.83
2016-05-06T05:23:50.180Z,10.81
2016-05-06T05:24:50.222Z,10.84
2016-05-06T05:25:50.884Z,10.92
2016-05-06T05:26:50.312Z,10.91
2016-05-06T05:27:50.331Z,10.98
2016-05-06T05:28:50.384Z,11.06
2016-05-06T05:29:50.466Z,11.01
2016-05-06T05:30:50.486Z,11.03
2016-05-06T05:31:50.490Z,11.06
2016-05-06T05:32:50.540Z,11.1
2016-05-06T05:33:50.591Z,11.11
2016-05-06T05:34:50.625Z,11.09
2016-05-06T05:35:50.660Z,11.1
2016-05-06T05:36:50.725Z,11.16
2016-05-06T05:37:50.760Z,11.1
2016-05-06T05:38:50.779Z,11.27
2016-05-06T05:39:50.657Z,11.32
2016-05-06T05:40:51.160Z,11.31
2016-05-06T05:41:50.913Z,11.35
2016-05-06T05:42:50.930Z,11.43
2016-05-06T05:43:50.855Z,11.34
2016-05-06T05:44:50.858Z,11.32
2016-05-06T05:45:51.079Z,11.43
2016-05-06T05:46:51.082Z,11.46
2016-05-06T05:47:51.163Z,11.52
2016-05-06T05:48:51.057Z,11.53
2016-05-06T05:49:51.215Z,11.56
2016-05-06T05:50:51.249Z,11.62
2016-05-06T05:51:51.329Z,11.65
2016-05-06T05:52:51.223Z,11.7
2016-05-06T05:53:51.382Z,11.72
2016-05-06T05:54:51.448Z,11.64
2016-05-06T05:55:51.309Z,11.83
2016-05-06T05:56:51.328Z,11.77
2016-05-06T05:57:51.549Z,11.85
2016-05-06T05:58:51.583Z,11.8
2016-05-06T05:59:51.601Z,11.86
2016-05-06T06:00:51.651Z,11.9
2016-05-06T06:01:51.684Z,11.93
2016-05-06T06:02:51.765Z,12.02
2016-05-06T06:03:51.643Z,12.05
2016-05-06T06:04:51.630Z,12.01
2016-05-06T06:05:51.852Z,12.04
2016-05-06T06:06:51.605Z,12.06
2016-05-06T06:07:51.920Z,12.09
2016-05-06T06:08:51.797Z,12.15
2016-05-06T06:09:51.863Z,12.13
2016-05-06T06:10:53.068Z,12.2
2016-05-06T06:11:52.055Z,12.16
2016-05-06T06:12:51.980Z,12.23
2016-05-06T06:13:52.170Z,12.3
2016-05-06T06:14:52.205Z,12.31
2016-05-06T06:15:52.222Z,12.3
2016-05-06T06:16:52.302Z,12.34
2016-05-06T06:17:52.338Z,12.45
2016-05-06T06:18:52.371Z,12.42
2016-05-06T06:19:52.390Z,12.54
2016-05-06T06:20:52.439Z,12.52
2016-05-06T06:21:52.473Z,12.64
2016-05-06T06:22:52.351Z,12.59
2016-05-06T06:23:52.603Z,12.6
2016-05-06T06:24:52.622Z,12.66
2016-05-06T06:25:52.656Z,12.67
2016-05-06T06:26:52.690Z,12.77
2016-05-06T06:27:52.614Z,12.78
2016-05-06T06:28:52.773Z,12.75
2016-05-06T06:29:52.619Z,12.92
2016-05-06T06:30:52.888Z,12.93
2016-05-06T06:31:52.890Z,12.92
2016-05-06T06:32:52.783Z,12.99
2016-05-06T06:33:52.787Z,13.02
2016-05-06T06:34:52.851Z,13.17
2016-05-06T06:35:53.057Z,13.11
2016-05-06T06:36:53.076Z,13.15
2016-05-06T06:37:53.141Z,13.22
2016-05-06T06:38:53.191Z,13.22
2016-05-06T06:39:53.194Z,13.17
2016-05-06T06:40:53.242Z,13.14
2016-05-06T06:41:53.277Z,13.22
2016-05-06T06:42:53.357Z,13.29
2016-05-06T06:43:53.360Z,13.33
2016-05-06T06:44:53.410Z,13.38
2016-05-06T06:45:53.428Z,13.36
2016-05-06T06:46:53.478Z,13.4
2016-05-06T06:47:53.355Z,13.46
2016-05-06T06:48:53.577Z,13.46
2016-05-06T06:49:53.454Z,13.52
2016-05-06T06:50:53.644Z,13.61
2016-05-06T06:51:53.679Z,13.67
2016-05-06T06:52:53.572Z,13.65
2016-05-06T06:53:53.793Z,13.67
2016-05-06T06:54:53.796Z,13.7
2016-05-06T06:55:53.845Z,13.81
2016-05-06T06:56:53.879Z,13.81
2016-05-06T06:57:53.929Z,13.81
2016-05-06T06:58:53.978Z,13.87
2016-05-06T06:59:53.841Z,13.87
2016-05-06T07:00:53.921Z,13.96
2016-05-06T07:01:54.081Z,13.91
2016-05-06T07:02:54.131Z,14.12
2016-05-06T07:03:54.195Z,14.04
2016-05-06T07:04:54.213Z,14.12
2016-05-06T07:05:54.247Z,14.13
2016-05-06T07:06:54.297Z,14.06
2016-05-06T07:07:54.378Z,14.16
2016-05-06T07:08:54.364Z,14.24
2016-05-06T07:09:54.415Z,14.16
2016-05-06T07:10:55.011Z,14.14
2016-05-06T07:11:54.482Z,14.31
2016-05-06T07:12:54.532Z,14.25
2016-05-06T07:13:54.613Z,14.27
2016-05-06T07:14:54.630Z,14.32
2016-05-06T07:15:54.680Z,14.38
2016-05-06T07:16:54.543Z,14.43
2016-05-06T07:17:54.780Z,14.37
2016-05-06T07:18:54.783Z,14.5
2016-05-06T07:19:54.816Z,14.52
2016-05-06T07:20:54.850Z,14.62
2016-05-06T07:21:54.977Z,14.6
2016-05-06T07:22:55.001Z,14.69
2016-05-06T07:23:54.832Z,14.68
2016-05-06T07:24:55.053Z,14.71
2016-05-06T07:25:55.071Z,14.74
2016-05-06T07:26:54.809Z,14.69
2016-05-06T07:27:55.156Z,14.8
2016-05-06T07:28:55.204Z,14.88
2016-05-06T07:29:55.254Z,14.91
2016-05-06T07:30:55.273Z,14.83
2016-05-06T07:31:55.307Z,14.91
2016-05-06T07:32:55.404Z,14.95
2016-05-06T07:33:55.390Z,15.11
2016-05-06T07:34:55.267Z,15.03
2016-05-06T07:35:55.473Z,15.08
2016-05-06T07:36:55.523Z,15.08
2016-05-06T07:37:55.572Z,15.19
2016-05-06T07:38:55.638Z,15.26
2016-05-06T07:39:55.500Z,15.33
2016-05-06T07:40:55.691Z,15.35
2016-05-06T07:41:55.739Z,15.33
2016-05-06T07:42:55.617Z,15.43
2016-05-06T07:43:55.667Z,15.48
2016-05-06T07:44:55.857Z,15.48
2016-05-06T07:45:55.782Z,15.54
2016-05-06T07:46:55.941Z,15.57
2016-05-06T07:47:55.693Z,15.63
2016-05-06T07:48:55.869Z,15.68
2016-05-06T07:49:56.074Z,15.72
2016-05-06T07:50:56.092Z,15.67
2016-05-06T07:51:56.157Z,15.82
2016-05-06T07:52:56.191Z,15.79
2016-05-06T07:53:56.303Z,15.82
2016-05-06T07:54:56.134Z,15.84
2016-05-06T07:55:56.418Z,15.88
2016-05-06T07:56:56.374Z,15.88
2016-05-06T07:57:56.439Z,15.96
2016-05-06T07:58:56.286Z,16.03
2016-05-06T07:59:56.476Z,16.03
2016-05-06T08:00:56.540Z,15.94
2016-05-06T08:01:56.575Z,16.03
2016-05-06T08:02:56.625Z,16.07
2016-05-06T08:03:56.689Z,16.11
2016-05-06T08:04:56.708Z,16.04
2016-05-06T08:05:56.742Z,16.03
2016-05-06T08:06:56.776Z,16.16
2016-05-06T08:07:56.684Z,16.14
2016-05-06T08:08:56.875Z,16.25
2016-05-06T08:09:56.909Z,16.2
2016-05-06T08:10:57.208Z,16.31
2016-05-06T08:11:57.539Z,16.31
2016-05-06T08:12:56.869Z,16.35
2016-05-06T08:13:57.076Z,16.4
2016-05-06T08:14:57.110Z,16.37
2016-05-06T08:15:57.160Z,16.44
2016-05-06T08:16:57.037Z,16.45
2016-05-06T08:17:57.243Z,16.52
2016-05-06T08:18:57.324Z,16.53
2016-05-06T08:19:57.326Z,16.6
2016-05-06T08:20:57.360Z,16.67
2016-05-06T08:21:57.457Z,16.65
2016-05-06T08:22:57.460Z,16.71
2016-05-06T08:23:57.477Z,16.74
2016-05-06T08:24:57.574Z,16.77
2016-05-06T08:25:57.671Z,16.86
2016-05-06T08:26:57.626Z,16.75
2016-05-06T08:27:57.504Z,16.85
2016-05-06T08:28:57.695Z,16.89
2016-05-06T08:29:57.759Z,16.85
2016-05-06T08:30:57.778Z,16.92
2016-05-06T08:31:57.843Z,16.93
2016-05-06T08:32:57.721Z,16.9
2016-05-06T08:33:57.926Z,16.96
2016-05-06T08:34:57.961Z,16.99
2016-05-06T08:35:58.010Z,17.04
2016-05-06T08:36:58.075Z,17.1
2016-05-06T08:37:58.078Z,17.14
2016-05-06T08:38:57.971Z,17.17
2016-05-06T08:39:58.021Z,17.1
2016-05-06T08:40:58.602Z,17.29
2016-05-06T08:41:58.105Z,17.22
2016-05-06T08:42:58.310Z,17.23
2016-05-06T08:43:58.375Z,17.32
2016-05-06T08:44:58.378Z,17.33
2016-05-06T08:45:58.411Z,17.36
2016-05-06T08:46:58.336Z,17.4
2016-05-06T08:47:58.542Z,17.47
2016-05-06T08:48:58.560Z,17.53
2016-05-06T08:49:58.594Z,17.53
2016-05-06T08:50:58.644Z,17.57
2016-05-06T08:51:58.693Z,17.73
2016-05-06T08:52:58.744Z,17.7
2016-05-06T08:53:58.762Z,17.7
2016-05-06T08:54:58.827Z,17.7
2016-05-06T08:55:58.704Z,17.84
2016-05-06T08:56:58.910Z,17.84
2016-05-06T08:57:58.929Z,17.82
2016-05-06T08:58:58.994Z,17.89
2016-05-06T08:59:59.028Z,17.95
2016-05-06T09:00:58.906Z,17.94
2016-05-06T09:01:59.158Z,17.92
2016-05-06T09:02:59.146Z,18
2016-05-06T09:03:59.023Z,18.03
2016-05-06T09:04:59.260Z,18.09
2016-05-06T09:05:59.278Z,18.12
2016-05-06T09:06:59.156Z,18.1
2016-05-06T09:07:59.205Z,18.17
2016-05-06T09:08:59.083Z,18.18
2016-05-06T09:09:59.305Z,18.25
2016-05-06T09:10:59.354Z,18.28
2016-05-06T09:11:59.389Z,18.27
2016-05-06T09:12:59.453Z,18.33
2016-05-06T09:13:59.675Z,18.4
2016-05-06T09:14:59.521Z,18.37
2016-05-06T09:15:59.742Z,18.34
2016-05-06T09:16:59.589Z,18.37
2016-05-06T09:17:59.780Z,18.43
2016-05-06T09:18:59.829Z,18.46
2016-05-06T09:19:59.878Z,18.47
2016-05-06T09:20:59.771Z,18.65
2016-05-06T09:21:59.947Z,18.59
2016-05-06T09:23:00.011Z,18.59
2016-05-06T09:24:00.076Z,18.62
2016-05-06T09:25:00.111Z,18.67
2016-05-06T09:26:00.161Z,18.65
2016-05-06T09:27:00.038Z,18.65
2016-05-06T09:28:00.119Z,18.74
2016-05-06T09:29:00.262Z,18.73
2016-05-06T09:30:00.343Z,18.67
2016-05-06T09:31:00.204Z,18.68
2016-05-06T09:32:00.410Z,18.7
2016-05-06T09:33:00.445Z,18.73
2016-05-06T09:34:00.526Z,18.82
2016-05-06T09:35:00.529Z,18.84
2016-05-06T09:36:00.578Z,18.94
2016-05-06T09:37:00.612Z,18.92
2016-05-06T09:38:00.677Z,19.05
2016-05-06T09:39:00.695Z,18.98
2016-05-06T09:40:00.745Z,19.11
2016-05-06T09:41:01.545Z,19.13
2016-05-06T09:42:00.891Z,19.11
2016-05-06T09:43:00.737Z,19.25
2016-05-06T09:44:00.912Z,19.14
2016-05-06T09:45:01.150Z,19.17
2016-05-06T09:46:01.027Z,19.33
2016-05-06T09:47:01.045Z,19.18
2016-05-06T09:48:00.923Z,19.31
2016-05-06T09:49:01.144Z,19.33
2016-05-06T09:50:01.177Z,19.33
2016-05-06T09:51:01.212Z,19.46
2016-05-06T09:52:01.277Z,19.53
2016-05-06T09:53:01.374Z,19.54
2016-05-06T09:54:01.361Z,19.63
2016-05-06T09:55:01.394Z,19.7
2016-05-06T09:56:01.757Z,19.76
2016-05-06T09:57:01.369Z,19.86
2016-05-06T09:58:01.527Z,19.88
2016-05-06T09:59:01.577Z,19.9
2016-05-06T10:00:01.610Z,19.94
2016-05-06T10:01:01.677Z,19.86
2016-05-06T10:02:01.695Z,19.91
2016-05-06T10:03:01.759Z,19.9
2016-05-06T10:04:01.841Z,20.03
2016-05-06T10:05:01.687Z,20.18
2016-05-06T10:06:01.876Z,20.21
2016-05-06T10:07:01.959Z,20.28
2016-05-06T10:08:01.992Z,20.39
2016-05-06T10:09:02.010Z,20.47
2016-05-06T10:10:02.045Z,20.64
2016-05-06T10:11:01.984Z,20.65
2016-05-06T10:12:02.018Z,20.72
2016-05-06T10:13:02.193Z,20.87
2016-05-06T10:14:02.274Z,20.96
2016-05-06T10:15:02.292Z,21.02
2016-05-06T10:16:02.358Z,21.19
2016-05-06T10:17:02.406Z,21.19
2016-05-06T10:18:02.456Z,21.41
2016-05-06T10:19:02.506Z,21.57
2016-05-06T10:20:02.383Z,21.76
2016-05-06T10:21:02.637Z,21.92
2016-05-06T10:22:02.702Z,22.12
2016-05-06T10:23:02.580Z,22.37
2016-05-06T10:24:02.754Z,22.68
2016-05-06T10:25:02.802Z,23.23
2016-05-06T10:26:02.885Z,23.79
2016-05-06T10:27:03.387Z,24.67
2016-05-06T10:28:02.999Z,25.69
2016-05-06T10:29:03.080Z,26.73
2016-05-06T10:30:03.113Z,27.73
2016-05-06T10:31:03.148Z,28.9
2016-05-06T10:32:03.260Z,29.81
2016-05-06T10:33:03.247Z,30.38
2016-05-06T10:34:03.327Z,30.71
2016-05-06T10:35:03.362Z,30.94
2016-05-06T10:36:03.317Z,31.55
2016-05-06T10:37:03.351Z,32.1
2016-05-06T10:38:03.432Z,32.51
2016-05-06T10:39:03.669Z,33.03
2016-05-06T10:40:03.656Z,33.6
2016-05-06T10:41:03.721Z,34.13
2016-05-06T10:42:03.881Z,34.53
2016-05-06T10:43:03.867Z,35.14
2016-05-06T10:44:03.917Z,36
2016-05-06T10:45:03.811Z,36.98
2016-05-06T10:46:04.016Z,37.59
2016-05-06T10:47:04.097Z,37.88
2016-05-06T10:48:04.162Z,38.26
2016-05-06T10:49:04.242Z,38.73
2016-05-06T10:50:04.246Z,39.39
2016-05-06T10:51:04.311Z,39.83
2016-05-06T10:52:04.407Z,40.1
2016-05-06T10:53:04.425Z,40.56
2016-05-06T10:54:04.491Z,40.88
2016-05-06T10:55:04.572Z,41.21
2016-05-06T10:56:04.637Z,41.1
2016-05-06T10:57:06.014Z,40.84
2016-05-06T10:58:04.721Z,40.59
2016-05-06T10:59:04.848Z,40.59
2016-05-06T11:00:04.867Z,40.64
2016-05-06T11:01:04.946Z,40.8
2016-05-06T11:02:05.044Z,41.05
2016-05-06T11:03:05.030Z,41.4
2016-05-06T11:04:05.112Z,41.33
2016-05-06T11:05:05.207Z,41.33
2016-05-06T11:06:05.273Z,41.56
2016-05-06T11:07:05.291Z,41.78
2016-05-06T11:08:05.357Z,42.03
2016-05-06T11:09:05.437Z,42.37
2016-05-06T11:10:05.471Z,42.72
2016-05-06T11:11:05.396Z,42.35
2016-05-06T11:12:05.509Z,41.93
2016-05-06T11:13:05.667Z,41.61
2016-05-06T11:14:05.701Z,41.5
2016-05-06T11:15:05.813Z,41.09
2016-05-06T11:16:05.690Z,40.18
2016-05-06T11:17:05.912Z,39.28
2016-05-06T11:18:05.806Z,38.64
2016-05-06T11:19:06.042Z,37.93
2016-05-06T11:20:05.920Z,37.7
2016-05-06T11:21:06.033Z,37.92
2016-05-06T11:22:06.239Z,38.41
2016-05-06T11:23:06.288Z,38.98
2016-05-06T11:24:06.180Z,39.8
2016-05-06T11:25:06.465Z,40.45
2016-05-06T11:26:06.671Z,41.03
2016-05-06T11:27:08.049Z,41.71
2016-05-06T11:28:06.598Z,42.08
2016-05-06T11:29:06.522Z,42.22
2016-05-06T11:30:06.713Z,41.94
2016-05-06T11:31:06.653Z,41.49
2016-05-06T11:32:06.702Z,41.13
2016-05-06T11:33:06.924Z,40.8
2016-05-06T11:34:06.818Z,40.42
2016-05-06T11:35:06.882Z,40.17
2016-05-06T11:36:07.120Z,39.9
2016-05-06T11:37:07.185Z,39.73
2016-05-06T11:38:07.078Z,39.47
2016-05-06T11:39:07.332Z,39.56
2016-05-06T11:40:07.349Z,39.55
2016-05-06T11:41:07.446Z,40.05
2016-05-06T11:42:07.526Z,40.38
2016-05-06T11:43:08.810Z,40.66
2016-05-06T11:44:07.923Z,40.62
2016-05-06T11:45:07.675Z,40.36
2016-05-06T11:46:07.584Z,39.92
2016-05-06T11:47:07.665Z,39.65
2016-05-06T11:48:07.917Z,39.37
2016-05-06T11:49:07.936Z,39.1
2016-05-06T11:50:08.001Z,38.8
2016-05-06T11:51:08.082Z,38.48
2016-05-06T11:52:08.006Z,38.15
2016-05-06T11:53:08.181Z,38.01
2016-05-06T11:54:08.262Z,37.98
2016-05-06T11:55:08.358Z,37.71
2016-05-06T11:56:08.392Z,37.78
2016-05-06T11:57:08.441Z,38.01
2016-05-06T11:58:08.570Z,38.49
2016-05-06T11:59:09.103Z,38.83
2016-05-06T12:00:08.621Z,39.18
2016-05-06T12:01:08.703Z,38.9
2016-05-06T12:02:08.643Z,38.51
2016-05-06T12:03:08.849Z,38.18
2016-05-06T12:04:08.882Z,37.93
2016-05-06T12:05:08.980Z,37.86
2016-05-06T12:06:09.029Z,37.88
2016-05-06T12:07:09.077Z,37.35
2016-05-06T12:08:09.238Z,37.01
2016-05-06T12:09:09.052Z,36.91
2016-05-06T12:10:09.118Z,36.52
2016-05-06T12:11:10.729Z,36.23
2016-05-06T12:12:10.998Z,36.27
2016-05-06T12:13:09.454Z,36.2
2016-05-06T12:14:09.378Z,36.24
2016-05-06T12:15:09.615Z,36.06
2016-05-06T12:16:09.664Z,35.82
2016-05-06T12:17:09.699Z,35.63
2016-05-06T12:18:09.639Z,35.45
2016-05-06T12:19:09.829Z,35.37
2016-05-06T12:20:09.910Z,35.36
2016-05-06T12:21:09.959Z,35.45
2016-05-06T12:22:10.025Z,35.79
2016-05-06T12:23:10.106Z,36.23
2016-05-06T12:24:10.139Z,36.58
2016-05-06T12:25:10.205Z,36.99
2016-05-06T12:26:10.129Z,37.38
2016-05-06T12:27:10.351Z,37.41
2016-05-06T12:28:10.447Z,37.28
2016-05-06T12:29:10.324Z,37.32
2016-05-06T12:30:10.531Z,37.56
2016-05-06T12:31:10.596Z,37.93
2016-05-06T12:32:10.661Z,37.85
2016-05-06T12:33:10.695Z,37.61
2016-05-06T12:34:10.791Z,37.36
2016-05-06T12:35:10.685Z,37.14
2016-05-06T12:36:10.890Z,36.98
2016-05-06T12:37:10.956Z,36.64
2016-05-06T12:38:11.021Z,36.33
2016-05-06T12:39:11.085Z,36.38
2016-05-06T12:40:11.167Z,36.68
2016-05-06T12:41:11.248Z,37.05
2016-05-06T12:42:11.265Z,37.61
2016-05-06T12:43:11.175Z,38.18
2016-05-06T12:44:11.396Z,38.46
2016-05-06T12:45:11.509Z,38.45
2016-05-06T12:46:11.526Z,38.46
2016-05-06T12:47:11.592Z,38.51
2016-05-06T12:48:11.517Z,38.44
2016-05-06T12:49:11.582Z,38.46
2016-05-06T12:50:11.788Z,38.39
2016-05-06T12:51:11.853Z,38.27
2016-05-06T12:52:11.903Z,37.92
2016-05-06T12:53:11.967Z,37.9
2016-05-06T12:54:12.079Z,38.03
2016-05-06T12:55:13.754Z,38.12
2016-05-06T12:56:12.006Z,38.05
2016-05-06T12:57:12.072Z,38.1
2016-05-06T12:58:12.340Z,38.07
2016-05-06T12:59:12.203Z,37.88
2016-05-06T13:00:12.252Z,37.68
2016-05-06T13:01:12.489Z,37.54
2016-05-06T13:02:12.523Z,37.36